sensor_id;sensor_type;location;lat;lon;timestamp;pressure;altitude;pressure_sealevel;temperature;humidity
15308;BME280;7755;52.208;6.964;2022-08-19T00:45:53;100971.28;;;18.96;100.00
15308;BME280;7755;52.208;6.964;2022-08-19T00:49:57;100966.06;;;18.94;100.00
15308;BME280;7755;52.208;6.964;2022-08-19T00:54:00;100951.47;;;18.94;100.00
15308;BME280;7755;52.208;6.964;2022-08-19T00:58:06;100952.88;;;18.91;100.00
15308;BME280;7755;52.208;6.964;2022-08-19T01:02:10;100957.03;;;18.89;100.00
15308;BME280;7755;52.208;6.964;2022-08-19T01:06:13;100948.25;;;18.87;100.00
15308;BME280;7755;52.208;6.964;2022-08-19T01:10:19;100941.09;;;18.86;100.00
15308;BME280;7755;52.208;6.964;2022-08-19T01:14:21;100941.13;;;18.80;100.00
15308;BME280;7755;52.208;6.964;2022-08-19T01:18:25;100938.66;;;18.79;100.00
15308;BME280;7755;52.208;6.964;2022-08-19T01:22:30;100937.03;;;18.78;100.00
15308;BME280;7755;52.208;6.964;2022-08-19T01:26:39;100935.66;;;18.75;100.00
15308;BME280;7755;52.208;6.964;2022-08-19T01:30:42;100938.19;;;18.72;100.00
15308;BME280;7755;52.208;6.964;2022-08-19T01:34:44;100947.31;;;18.67;100.00
15308;BME280;7755;52.208;6.964;2022-08-19T01:38:48;100935.72;;;18.65;100.00
15308;BME280;7755;52.208;6.964;2022-08-19T01:42:51;100918.69;;;18.63;100.00
15308;BME280;7755;52.208;6.964;2022-08-19T01:46:53;100924.47;;;18.62;100.00
15308;BME280;7755;52.208;6.964;2022-08-19T01:50:55;100922.28;;;18.59;100.00
15308;BME280;7755;52.208;6.964;2022-08-19T01:54:58;100935.81;;;18.55;100.00
15308;BME280;7755;52.208;6.964;2022-08-19T01:59:03;100942.72;;;18.52;100.00
15308;BME280;7755;52.208;6.964;2022-08-19T02:03:06;100943.56;;;18.48;100.00
15308;BME280;7755;52.208;6.964;2022-08-19T02:07:10;100934.25;;;18.44;100.00
15308;BME280;7755;52.208;6.964;2022-08-19T02:11:21;100939.22;;;18.42;100.00
15308;BME280;7755;52.208;6.964;2022-08-19T02:15:23;100935.66;;;18.41;100.00
15308;BME280;7755;52.208;6.964;2022-08-19T02:19:26;100944.50;;;18.38;100.00
15308;BME280;7755;52.208;6.964;2022-08-19T02:23:28;100947.53;;;18.37;100.00
15308;BME280;7755;52.208;6.964;2022-08-19T02:27:31;100938.72;;;18.35;100.00
15308;BME280;7755;52.208;6.964;2022-08-19T02:31:33;100939.59;;;18.30;100.00
15308;BME280;7755;52.208;6.964;2022-08-19T02:35:36;100943.19;;;18.25;100.00
15308;BME280;7755;52.208;6.964;2022-08-19T02:39:38;100936.09;;;18.19;100.00
15308;BME280;7755;52.208;6.964;2022-08-19T02:43:41;100930.59;;;18.14;100.00
15308;BME280;7755;52.208;6.964;2022-08-19T02:47:43;100931.75;;;18.08;100.00
15308;BME280;7755;52.208;6.964;2022-08-19T02:51:45;100942.22;;;18.06;100.00
15308;BME280;7755;52.208;6.964;2022-08-19T02:55:48;100942.25;;;18.01;100.00
15308;BME280;7755;52.208;6.964;2022-08-19T02:59:51;100954.38;;;17.95;100.00
15308;BME280;7755;52.208;6.964;2022-08-19T03:03:53;100947.81;;;17.91;100.00
15308;BME280;7755;52.208;6.964;2022-08-19T03:07:55;100948.41;;;17.83;100.00
15308;BME280;7755;52.208;6.964;2022-08-19T03:11:57;100959.16;;;17.74;100.00
15308;BME280;7755;52.208;6.964;2022-08-19T03:16:04;100951.19;;;17.67;100.00
15308;BME280;7755;52.208;6.964;2022-08-19T03:20:07;100948.50;;;17.62;100.00
15308;BME280;7755;52.208;6.964;2022-08-19T03:24:15;100946.59;;;17.53;100.00
15308;BME280;7755;52.208;6.964;2022-08-19T03:28:17;100942.78;;;17.43;100.00
15308;BME280;7755;52.208;6.964;2022-08-19T03:32:21;100938.97;;;17.34;100.00
15308;BME280;7755;52.208;6.964;2022-08-19T03:36:25;100935.44;;;17.24;100.00
15308;BME280;7755;52.208;6.964;2022-08-19T03:40:27;100943.13;;;17.22;100.00
15308;BME280;7755;52.208;6.964;2022-08-19T03:44:30;100940.38;;;17.16;100.00
15308;BME280;7755;52.208;6.964;2022-08-19T03:48:35;100934.06;;;17.11;100.00
15308;BME280;7755;52.208;6.964;2022-08-19T03:52:37;100933.84;;;17.02;100.00
15308;BME280;7755;52.208;6.964;2022-08-19T03:56:42;100932.44;;;17.00;100.00
15308;BME280;7755;52.208;6.964;2022-08-19T04:00:44;100931.66;;;16.94;100.00
15308;BME280;7755;52.208;6.964;2022-08-19T04:04:47;100929.72;;;16.95;100.00
15308;BME280;7755;52.208;6.964;2022-08-19T04:08:50;100928.34;;;16.92;100.00
15308;BME280;7755;52.208;6.964;2022-08-19T04:12:54;100922.88;;;16.87;100.00
15308;BME280;7755;52.208;6.964;2022-08-19T04:16:56;100921.50;;;16.84;100.00
15308;BME280;7755;52.208;6.964;2022-08-19T04:21:00;100925.91;;;16.80;100.00
15308;BME280;7755;52.208;6.964;2022-08-19T04:25:02;100920.66;;;16.84;100.00
15308;BME280;7755;52.208;6.964;2022-08-19T04:29:07;100921.78;;;16.83;100.00
15308;BME280;7755;52.208;6.964;2022-08-19T04:33:11;100921.78;;;16.83;100.00
15308;BME280;7755;52.208;6.964;2022-08-19T04:37:14;100923.13;;;16.85;100.00
15308;BME280;7755;52.208;6.964;2022-08-19T04:41:16;100924.78;;;16.86;100.00
15308;BME280;7755;52.208;6.964;2022-08-19T04:45:36;100927.81;;;16.85;100.00
15308;BME280;7755;52.208;6.964;2022-08-19T04:49:38;100927.81;;;16.90;100.00
15308;BME280;7755;52.208;6.964;2022-08-19T04:53:42;100934.41;;;16.89;100.00
15308;BME280;7755;52.208;6.964;2022-08-19T04:57:44;100941.00;;;16.83;100.00
15308;BME280;7755;52.208;6.964;2022-08-19T05:01:46;100952.00;;;16.83;100.00
15308;BME280;7755;52.208;6.964;2022-08-19T05:05:50;100936.03;;;16.85;100.00
15308;BME280;7755;52.208;6.964;2022-08-19T05:09:53;100937.44;;;16.82;100.00
15308;BME280;7755;52.208;6.964;2022-08-19T05:13:56;100951.16;;;16.77;100.00
15308;BME280;7755;52.208;6.964;2022-08-19T05:17:58;100950.63;;;16.75;100.00
15308;BME280;7755;52.208;6.964;2022-08-19T05:22:17;100950.88;;;16.79;100.00
15308;BME280;7755;52.208;6.964;2022-08-19T05:26:38;100948.66;;;16.86;100.00
15308;BME280;7755;52.208;6.964;2022-08-19T05:30:40;100942.94;;;16.87;100.00
15308;BME280;7755;52.208;6.964;2022-08-19T05:34:45;100942.06;;;16.92;100.00
15308;BME280;7755;52.208;6.964;2022-08-19T05:38:47;100946.47;;;16.98;100.00
15308;BME280;7755;52.208;6.964;2022-08-19T05:42:51;100956.06;;;17.06;100.00
15308;BME280;7755;52.208;6.964;2022-08-19T05:48:11;100955.72;;;17.43;100.00
15308;BME280;7755;52.208;6.964;2022-08-19T05:52:14;100963.66;;;17.55;100.00
15308;BME280;7755;52.208;6.964;2022-08-19T05:56:18;100953.69;;;17.64;100.00
15308;BME280;7755;52.208;6.964;2022-08-19T06:00:20;100959.47;;;17.72;100.00
15308;BME280;7755;52.208;6.964;2022-08-19T06:04:23;100961.63;;;17.81;100.00
15308;BME280;7755;52.208;6.964;2022-08-19T06:08:26;100960.78;;;17.85;100.00
15308;BME280;7755;52.208;6.964;2022-08-19T06:12:29;100957.19;;;17.90;100.00
15308;BME280;7755;52.208;6.964;2022-08-19T06:16:34;100964.34;;;17.91;100.00
15308;BME280;7755;52.208;6.964;2022-08-19T06:20:38;100969.25;;;17.94;100.00
15308;BME280;7755;52.208;6.964;2022-08-19T06:24:40;100973.09;;;17.98;100.00
15308;BME280;7755;52.208;6.964;2022-08-19T06:28:42;100968.69;;;18.02;100.00
15308;BME280;7755;52.208;6.964;2022-08-19T06:32:46;100964.75;;;18.08;100.00
15308;BME280;7755;52.208;6.964;2022-08-19T06:36:52;100960.88;;;18.14;100.00
15308;BME280;7755;52.208;6.964;2022-08-19T06:41:00;100955.13;;;18.11;100.00
15308;BME280;7755;52.208;6.964;2022-08-19T06:45:02;100959.22;;;18.18;100.00
15308;BME280;7755;52.208;6.964;2022-08-19T06:49:05;100956.66;;;18.32;100.00
15308;BME280;7755;52.208;6.964;2022-08-19T06:53:11;100953.75;;;18.52;100.00
15308;BME280;7755;52.208;6.964;2022-08-19T06:57:13;100956.03;;;18.79;100.00
15308;BME280;7755;52.208;6.964;2022-08-19T07:01:15;100953.50;;;19.12;100.00
15308;BME280;7755;52.208;6.964;2022-08-19T07:05:18;100960.38;;;19.39;100.00
15308;BME280;7755;52.208;6.964;2022-08-19T07:09:21;100951.94;;;19.54;100.00
15308;BME280;7755;52.208;6.964;2022-08-19T07:13:24;100954.75;;;19.73;100.00
15308;BME280;7755;52.208;6.964;2022-08-19T07:17:31;100957.84;;;20.09;100.00
15308;BME280;7755;52.208;6.964;2022-08-19T07:21:33;100949.41;;;20.38;100.00
15308;BME280;7755;52.208;6.964;2022-08-19T07:25:39;100961.72;;;20.64;100.00
15308;BME280;7755;52.208;6.964;2022-08-19T07:29:40;100949.00;;;20.96;100.00
15308;BME280;7755;52.208;6.964;2022-08-19T07:33:43;100955.63;;;21.27;100.00
15308;BME280;7755;52.208;6.964;2022-08-19T07:37:47;100965.06;;;21.68;100.00
15308;BME280;7755;52.208;6.964;2022-08-19T07:41:51;100968.88;;;22.08;100.00
15308;BME280;7755;52.208;6.964;2022-08-19T07:45:54;100968.91;;;22.44;100.00
15308;BME280;7755;52.208;6.964;2022-08-19T07:49:57;100972.38;;;22.72;99.21
15308;BME280;7755;52.208;6.964;2022-08-19T07:54:00;100975.16;;;22.95;95.38
15308;BME280;7755;52.208;6.964;2022-08-19T07:58:03;100979.56;;;23.18;94.53
15308;BME280;7755;52.208;6.964;2022-08-19T08:02:05;100975.97;;;23.57;91.60
15308;BME280;7755;52.208;6.964;2022-08-19T08:06:08;100986.53;;;24.04;89.82
15308;BME280;7755;52.208;6.964;2022-08-19T08:10:33;100991.84;;;24.40;87.11
15308;BME280;7755;52.208;6.964;2022-08-19T08:14:38;100994.44;;;24.71;86.36
15308;BME280;7755;52.208;6.964;2022-08-19T08:18:41;100992.06;;;25.25;83.12
15308;BME280;7755;52.208;6.964;2022-08-19T08:22:45;101001.31;;;25.46;80.68
15308;BME280;7755;52.208;6.964;2022-08-19T08:27:05;100988.41;;;25.80;80.00
15308;BME280;7755;52.208;6.964;2022-08-19T08:31:08;101003.81;;;26.07;78.34
15308;BME280;7755;52.208;6.964;2022-08-19T08:35:15;101011.25;;;26.24;77.00
15308;BME280;7755;52.208;6.964;2022-08-19T08:39:20;101000.03;;;26.32;74.77
15308;BME280;7755;52.208;6.964;2022-08-19T08:43:27;101008.50;;;26.45;72.82
15308;BME280;7755;52.208;6.964;2022-08-19T08:47:35;101003.97;;;26.31;74.51
15308;BME280;7755;52.208;6.964;2022-08-19T08:51:42;101002.69;;;26.71;72.80
15308;BME280;7755;52.208;6.964;2022-08-19T08:55:46;101005.63;;;27.07;71.53
15308;BME280;7755;52.208;6.964;2022-08-19T08:59:50;100998.88;;;27.08;68.86
15308;BME280;7755;52.208;6.964;2022-08-19T09:03:56;101002.38;;;27.05;67.50
15308;BME280;7755;52.208;6.964;2022-08-19T09:08:00;100993.84;;;27.02;67.97
15308;BME280;7755;52.208;6.964;2022-08-19T09:12:10;100994.94;;;27.09;66.85
15308;BME280;7755;52.208;6.964;2022-08-19T09:16:17;100986.59;;;27.34;66.31
15308;BME280;7755;52.208;6.964;2022-08-19T09:20:23;100992.31;;;27.49;62.10
15308;BME280;7755;52.208;6.964;2022-08-19T09:24:26;100986.50;;;27.67;60.58
15308;BME280;7755;52.208;6.964;2022-08-19T09:28:28;100994.34;;;27.73;58.05
15308;BME280;7755;52.208;6.964;2022-08-19T09:32:30;100992.38;;;27.74;59.46
15308;BME280;7755;52.208;6.964;2022-08-19T09:36:34;100994.66;;;28.09;56.13
15308;BME280;7755;52.208;6.964;2022-08-19T09:40:39;100992.31;;;28.11;55.84
15308;BME280;7755;52.208;6.964;2022-08-19T09:44:41;100983.31;;;28.42;55.73
15308;BME280;7755;52.208;6.964;2022-08-19T09:48:43;100982.53;;;28.57;54.18
15308;BME280;7755;52.208;6.964;2022-08-19T09:52:50;100979.47;;;28.34;54.02
15308;BME280;7755;52.208;6.964;2022-08-19T09:56:54;100981.84;;;28.32;53.80
15308;BME280;7755;52.208;6.964;2022-08-19T10:04:54;100984.63;;;28.32;53.37
15308;BME280;7755;52.208;6.964;2022-08-19T10:09:16;100978.06;;;28.40;53.62
15308;BME280;7755;52.208;6.964;2022-08-19T10:13:21;100974.66;;;28.47;53.02
15308;BME280;7755;52.208;6.964;2022-08-19T10:17:25;100966.13;;;28.55;52.41
15308;BME280;7755;52.208;6.964;2022-08-19T10:21:31;100972.63;;;28.88;53.47
15308;BME280;7755;52.208;6.964;2022-08-19T10:25:34;100976.44;;;28.95;51.87
15308;BME280;7755;52.208;6.964;2022-08-19T10:29:36;100971.13;;;29.06;49.98
15308;BME280;7755;52.208;6.964;2022-08-19T10:33:39;100976.28;;;29.04;51.10
15308;BME280;7755;52.208;6.964;2022-08-19T10:37:42;100960.47;;;29.12;51.30
15308;BME280;7755;52.208;6.964;2022-08-19T10:41:44;100962.38;;;29.07;50.79
15308;BME280;7755;52.208;6.964;2022-08-19T10:45:52;100961.19;;;28.93;50.10
15308;BME280;7755;52.208;6.964;2022-08-19T10:49:55;100960.47;;;28.96;51.01
15308;BME280;7755;52.208;6.964;2022-08-19T10:54:18;100959.69;;;29.27;49.91
15308;BME280;7755;52.208;6.964;2022-08-19T10:58:21;100966.81;;;29.40;48.98
15308;BME280;7755;52.208;6.964;2022-08-19T11:02:26;100966.97;;;29.79;48.43
15308;BME280;7755;52.208;6.964;2022-08-19T11:06:30;100952.53;;;30.31;45.72
15308;BME280;7755;52.208;6.964;2022-08-19T11:10:34;100956.59;;;30.53;44.41
15308;BME280;7755;52.208;6.964;2022-08-19T11:14:36;100953.50;;;30.58;43.90
15308;BME280;7755;52.208;6.964;2022-08-19T11:18:40;100949.22;;;30.45;44.32
15308;BME280;7755;52.208;6.964;2022-08-19T11:22:43;100944.63;;;30.17;45.21
15308;BME280;7755;52.208;6.964;2022-08-19T11:26:48;100950.47;;;29.58;46.11
15308;BME280;7755;52.208;6.964;2022-08-19T11:30:50;100951.44;;;29.50;46.71
15308;BME280;7755;52.208;6.964;2022-08-19T11:34:52;100946.66;;;29.66;46.74
15308;BME280;7755;52.208;6.964;2022-08-19T11:38:55;100939.56;;;30.07;46.86
15308;BME280;7755;52.208;6.964;2022-08-19T11:42:58;100938.22;;;30.56;45.00
15308;BME280;7755;52.208;6.964;2022-08-19T11:47:00;100939.47;;;31.01;44.56
15308;BME280;7755;52.208;6.964;2022-08-19T11:51:04;100934.09;;;30.69;43.37
15308;BME280;7755;52.208;6.964;2022-08-19T11:55:08;100936.38;;;30.25;44.75
15308;BME280;7755;52.208;6.964;2022-08-19T11:59:12;100930.41;;;29.91;45.71
15308;BME280;7755;52.208;6.964;2022-08-19T12:03:14;100928.13;;;29.97;44.16
15308;BME280;7755;52.208;6.964;2022-08-19T12:07:17;100928.28;;;30.04;44.25
15308;BME280;7755;52.208;6.964;2022-08-19T12:11:19;100920.13;;;29.79;44.35
15308;BME280;7755;52.208;6.964;2022-08-19T12:15:23;100921.41;;;29.82;44.16
15308;BME280;7755;52.208;6.964;2022-08-19T12:19:25;100930.28;;;29.68;44.72
15308;BME280;7755;52.208;6.964;2022-08-19T12:23:27;100926.88;;;29.43;45.54
15308;BME280;7755;52.208;6.964;2022-08-19T12:27:30;100926.50;;;29.29;45.02
15308;BME280;7755;52.208;6.964;2022-08-19T12:31:34;100918.31;;;29.20;44.28
15308;BME280;7755;52.208;6.964;2022-08-19T12:35:39;100923.34;;;28.99;44.04
15308;BME280;7755;52.208;6.964;2022-08-19T12:39:42;100921.25;;;29.12;43.87
15308;BME280;7755;52.208;6.964;2022-08-19T12:43:45;100917.75;;;29.30;41.67
15308;BME280;7755;52.208;6.964;2022-08-19T12:47:50;100915.81;;;29.66;40.20
15308;BME280;7755;52.208;6.964;2022-08-19T12:51:53;100918.63;;;30.01;39.13
15308;BME280;7755;52.208;6.964;2022-08-19T12:55:55;100919.88;;;30.04;39.98
15308;BME280;7755;52.208;6.964;2022-08-19T12:59:58;100910.56;;;30.35;39.72
15308;BME280;7755;52.208;6.964;2022-08-19T13:04:02;100910.44;;;30.51;39.75
15308;BME280;7755;52.208;6.964;2022-08-19T13:08:04;100898.09;;;30.75;39.39
15308;BME280;7755;52.208;6.964;2022-08-19T13:12:07;100909.66;;;30.69;38.41
15308;BME280;7755;52.208;6.964;2022-08-19T13:16:14;100899.56;;;30.68;38.79
15308;BME280;7755;52.208;6.964;2022-08-19T13:20:19;100903.34;;;30.76;38.96
15308;BME280;7755;52.208;6.964;2022-08-19T13:24:22;100903.78;;;30.78;36.54
15308;BME280;7755;52.208;6.964;2022-08-19T13:28:24;100895.50;;;30.66;37.58
15308;BME280;7755;52.208;6.964;2022-08-19T13:32:28;100887.44;;;30.84;37.65
15308;BME280;7755;52.208;6.964;2022-08-19T13:36:49;100894.94;;;30.99;36.70
15308;BME280;7755;52.208;6.964;2022-08-19T13:40:52;100882.00;;;30.94;36.65
15308;BME280;7755;52.208;6.964;2022-08-19T13:44:54;100881.25;;;30.97;36.71
15308;BME280;7755;52.208;6.964;2022-08-19T13:48:56;100884.56;;;31.03;35.31
15308;BME280;7755;52.208;6.964;2022-08-19T13:53:00;100881.75;;;30.80;36.38
15308;BME280;7755;52.208;6.964;2022-08-19T13:57:03;100873.97;;;30.93;36.76
15308;BME280;7755;52.208;6.964;2022-08-19T14:01:05;100875.41;;;30.83;36.08
15308;BME280;7755;52.208;6.964;2022-08-19T14:05:10;100870.72;;;30.91;36.95
15308;BME280;7755;52.208;6.964;2022-08-19T14:09:14;100861.41;;;30.87;36.59
15308;BME280;7755;52.208;6.964;2022-08-19T14:13:19;100864.84;;;30.99;37.44
15308;BME280;7755;52.208;6.964;2022-08-19T14:17:21;100872.22;;;30.85;39.06
15308;BME280;7755;52.208;6.964;2022-08-19T14:21:24;100869.03;;;30.44;39.57
15308;BME280;7755;52.208;6.964;2022-08-19T14:25:29;100862.91;;;30.19;39.75
15308;BME280;7755;52.208;6.964;2022-08-19T14:29:33;100864.63;;;30.24;40.50
15308;BME280;7755;52.208;6.964;2022-08-19T14:33:36;100861.00;;;30.04;40.56
15308;BME280;7755;52.208;6.964;2022-08-19T14:38:12;100850.31;;;30.09;39.62
15308;BME280;7755;52.208;6.964;2022-08-19T14:57:59;100855.22;;;29.26;41.56
15308;BME280;7755;52.208;6.964;2022-08-19T15:02:01;100863.91;;;29.21;43.28
15308;BME280;7755;52.208;6.964;2022-08-19T15:06:29;100867.41;;;29.18;42.12
15308;BME280;7755;52.208;6.964;2022-08-19T15:10:42;100861.28;;;29.28;42.35
15308;BME280;7755;52.208;6.964;2022-08-19T15:14:46;100855.47;;;29.37;41.77
15308;BME280;7755;52.208;6.964;2022-08-19T15:18:52;100874.66;;;29.19;41.63
15308;BME280;7755;52.208;6.964;2022-08-19T15:22:54;100869.88;;;29.04;42.69
15308;BME280;7755;52.208;6.964;2022-08-19T15:26:56;100869.88;;;29.20;42.71
15308;BME280;7755;52.208;6.964;2022-08-19T15:31:00;100873.28;;;29.29;43.03
15308;BME280;7755;52.208;6.964;2022-08-19T15:35:03;100864.78;;;29.41;42.35
15308;BME280;7755;52.208;6.964;2022-08-19T15:39:06;100867.94;;;29.55;41.11
15308;BME280;7755;52.208;6.964;2022-08-19T15:43:09;100869.84;;;29.35;41.10
15308;BME280;7755;52.208;6.964;2022-08-19T15:47:14;100873.66;;;29.27;42.00
15308;BME280;7755;52.208;6.964;2022-08-19T15:51:16;100881.69;;;29.29;40.50
15308;BME280;7755;52.208;6.964;2022-08-19T15:55:20;100881.34;;;29.30;40.13
15308;BME280;7755;52.208;6.964;2022-08-19T15:59:22;100883.06;;;29.35;40.58
15308;BME280;7755;52.208;6.964;2022-08-19T16:03:43;100880.47;;;29.46;41.16
15308;BME280;7755;52.208;6.964;2022-08-19T16:08:03;100894.88;;;29.44;40.26
15308;BME280;7755;52.208;6.964;2022-08-19T16:12:06;100892.34;;;29.23;40.56
15308;BME280;7755;52.208;6.964;2022-08-19T16:16:08;100905.19;;;29.08;41.53
15308;BME280;7755;52.208;6.964;2022-08-19T16:20:11;100901.03;;;29.02;41.77
15308;BME280;7755;52.208;6.964;2022-08-19T16:24:16;100902.16;;;28.86;42.16
15308;BME280;7755;52.208;6.964;2022-08-19T16:28:18;100894.38;;;28.63;42.79
15308;BME280;7755;52.208;6.964;2022-08-19T16:32:19;100891.84;;;28.58;43.84
15308;BME280;7755;52.208;6.964;2022-08-19T16:36:23;100892.56;;;28.55;44.08
15308;BME280;7755;52.208;6.964;2022-08-19T16:40:25;100899.38;;;28.42;45.18
15308;BME280;7755;52.208;6.964;2022-08-19T16:44:27;100910.38;;;28.22;49.16
15308;BME280;7755;52.208;6.964;2022-08-19T16:48:29;100907.09;;;28.05;52.42
15308;BME280;7755;52.208;6.964;2022-08-19T16:52:33;100910.16;;;27.87;55.08
15308;BME280;7755;52.208;6.964;2022-08-19T16:56:37;100914.91;;;27.62;57.72
15308;BME280;7755;52.208;6.964;2022-08-19T17:00:39;100921.44;;;27.30;61.00
15308;BME280;7755;52.208;6.964;2022-08-19T17:04:41;100935.13;;;26.98;63.81
15308;BME280;7755;52.208;6.964;2022-08-19T17:08:45;100943.41;;;26.74;66.06
15308;BME280;7755;52.208;6.964;2022-08-19T17:12:47;100935.09;;;26.53;65.93
15308;BME280;7755;52.208;6.964;2022-08-19T17:16:48;100944.41;;;26.36;66.90
15308;BME280;7755;52.208;6.964;2022-08-19T17:20:51;100947.53;;;26.13;67.76
15308;BME280;7755;52.208;6.964;2022-08-19T17:24:55;100963.34;;;26.01;68.94
15308;BME280;7755;52.208;6.964;2022-08-19T17:28:57;100952.47;;;25.87;69.86
15308;BME280;7755;52.208;6.964;2022-08-19T17:33:00;100953.03;;;25.72;70.98
15308;BME280;7755;52.208;6.964;2022-08-19T17:37:02;100945.75;;;25.58;71.70
15308;BME280;7755;52.208;6.964;2022-08-19T17:41:05;100956.75;;;25.55;71.93
15308;BME280;7755;52.208;6.964;2022-08-19T17:45:08;100956.94;;;25.50;72.07
15308;BME280;7755;52.208;6.964;2022-08-19T17:49:11;100962.44;;;25.29;73.39
15308;BME280;7755;52.208;6.964;2022-08-19T17:53:13;100965.72;;;25.22;74.24
15308;BME280;7755;52.208;6.964;2022-08-19T17:57:16;100966.88;;;25.13;75.34
15308;BME280;7755;52.208;6.964;2022-08-19T18:01:18;100969.41;;;24.88;76.68
15308;BME280;7755;52.208;6.964;2022-08-19T18:05:22;100981.34;;;24.71;78.37
15308;BME280;7755;52.208;6.964;2022-08-19T18:09:31;100976.66;;;24.55;80.63
15308;BME280;7755;52.208;6.964;2022-08-19T18:13:42;100979.25;;;24.42;82.27
15308;BME280;7755;52.208;6.964;2022-08-19T18:17:45;100990.66;;;24.23;83.17
15308;BME280;7755;52.208;6.964;2022-08-19T18:21:47;100992.44;;;24.11;84.60
15308;BME280;7755;52.208;6.964;2022-08-19T18:25:49;100982.63;;;23.96;86.18
15308;BME280;7755;52.208;6.964;2022-08-19T18:29:53;100987.97;;;23.84;86.68
15308;BME280;7755;52.208;6.964;2022-08-19T18:33:58;100985.31;;;23.70;88.71
15308;BME280;7755;52.208;6.964;2022-08-19T18:38:01;100995.00;;;23.50;90.51
15308;BME280;7755;52.208;6.964;2022-08-19T18:42:24;100983.88;;;23.41;93.12
15308;BME280;7755;52.208;6.964;2022-08-19T18:46:50;100991.41;;;23.41;94.54
15308;BME280;7755;52.208;6.964;2022-08-19T18:51:10;100999.84;;;23.36;95.21
15308;BME280;7755;52.208;6.964;2022-08-19T18:55:12;100990.34;;;23.28;95.45
15308;BME280;7755;52.208;6.964;2022-08-19T18:59:15;100989.72;;;23.31;95.59
15308;BME280;7755;52.208;6.964;2022-08-19T19:03:21;100992.81;;;23.30;95.69
15308;BME280;7755;52.208;6.964;2022-08-19T19:07:24;100994.75;;;23.29;95.54
15308;BME280;7755;52.208;6.964;2022-08-19T19:11:28;100994.28;;;23.27;94.89
15308;BME280;7755;52.208;6.964;2022-08-19T19:15:30;101007.69;;;23.34;95.10
15308;BME280;7755;52.208;6.964;2022-08-19T19:19:34;101009.09;;;23.23;95.21
15308;BME280;7755;52.208;6.964;2022-08-19T19:23:36;101011.25;;;23.26;95.29
15308;BME280;7755;52.208;6.964;2022-08-19T19:27:40;101016.78;;;23.26;95.44
15308;BME280;7755;52.208;6.964;2022-08-19T19:31:42;101015.66;;;23.27;95.39
15308;BME280;7755;52.208;6.964;2022-08-19T19:35:45;101022.78;;;23.19;95.99
15308;BME280;7755;52.208;6.964;2022-08-19T19:39:47;101019.81;;;23.15;96.26
15308;BME280;7755;52.208;6.964;2022-08-19T19:43:49;101025.97;;;23.04;96.78
15308;BME280;7755;52.208;6.964;2022-08-19T19:47:51;101026.53;;;22.92;97.60
15308;BME280;7755;52.208;6.964;2022-08-19T19:51:54;101012.59;;;22.83;98.10
15308;BME280;7755;52.208;6.964;2022-08-19T19:55:56;101018.56;;;22.77;98.03
15308;BME280;7755;52.208;6.964;2022-08-19T19:59:58;101018.88;;;22.75;98.30
15308;BME280;7755;52.208;6.964;2022-08-19T20:04:00;101025.22;;;22.76;97.89
15308;BME280;7755;52.208;6.964;2022-08-19T20:08:03;101021.97;;;22.74;97.56
15308;BME280;7755;52.208;6.964;2022-08-19T20:12:23;101026.69;;;22.73;98.02
15308;BME280;7755;52.208;6.964;2022-08-19T20:16:24;101021.78;;;22.70;97.85
15308;BME280;7755;52.208;6.964;2022-08-19T20:20:28;101020.66;;;22.71;97.98
15308;BME280;7755;52.208;6.964;2022-08-19T20:24:33;101015.47;;;22.56;98.79
15308;BME280;7755;52.208;6.964;2022-08-19T20:28:35;101023.59;;;22.52;99.26
15308;BME280;7755;52.208;6.964;2022-08-19T20:32:37;101027.72;;;22.41;99.56
15308;BME280;7755;52.208;6.964;2022-08-19T20:36:39;101025.09;;;22.36;99.68
15308;BME280;7755;52.208;6.964;2022-08-19T20:40:43;101024.88;;;22.32;100.00
15308;BME280;7755;52.208;6.964;2022-08-19T20:44:45;101023.56;;;22.30;100.00
15308;BME280;7755;52.208;6.964;2022-08-19T20:48:46;101031.56;;;22.31;100.00
15308;BME280;7755;52.208;6.964;2022-08-19T20:52:48;101031.34;;;22.28;100.00
15308;BME280;7755;52.208;6.964;2022-08-19T20:56:51;101038.66;;;22.24;100.00
15308;BME280;7755;52.208;6.964;2022-08-19T21:00:56;101037.13;;;22.18;100.00
15308;BME280;7755;52.208;6.964;2022-08-19T21:04:59;101031.09;;;22.16;100.00
15308;BME280;7755;52.208;6.964;2022-08-19T21:09:01;101026.97;;;22.13;100.00
15308;BME280;7755;52.208;6.964;2022-08-19T21:13:04;101023.69;;;22.11;100.00
15308;BME280;7755;52.208;6.964;2022-08-19T21:17:06;101018.97;;;22.12;100.00
15308;BME280;7755;52.208;6.964;2022-08-19T21:21:08;101026.22;;;22.07;100.00
15308;BME280;7755;52.208;6.964;2022-08-19T21:25:10;101017.09;;;22.07;100.00
15308;BME280;7755;52.208;6.964;2022-08-19T21:29:13;101021.00;;;22.06;100.00
15308;BME280;7755;52.208;6.964;2022-08-19T21:33:15;101021.72;;;21.98;100.00
15308;BME280;7755;52.208;6.964;2022-08-19T21:37:17;101036.31;;;21.90;100.00
15308;BME280;7755;52.208;6.964;2022-08-19T21:41:19;101024.19;;;21.86;100.00
15308;BME280;7755;52.208;6.964;2022-08-19T21:45:23;101027.88;;;21.81;100.00
15308;BME280;7755;52.208;6.964;2022-08-19T21:49:25;101038.13;;;21.80;100.00
15308;BME280;7755;52.208;6.964;2022-08-19T21:53:27;101041.44;;;21.83;100.00
15308;BME280;7755;52.208;6.964;2022-08-19T21:57:29;101050.97;;;21.76;100.00
15308;BME280;7755;52.208;6.964;2022-08-19T22:01:33;101058.13;;;21.77;100.00
15308;BME280;7755;52.208;6.964;2022-08-19T22:05:35;101069.41;;;21.81;100.00
15308;BME280;7755;52.208;6.964;2022-08-19T22:09:37;101061.94;;;21.82;100.00
15308;BME280;7755;52.208;6.964;2022-08-19T22:13:39;101060.28;;;21.80;100.00
15308;BME280;7755;52.208;6.964;2022-08-19T22:17:42;101051.88;;;21.86;100.00
15308;BME280;7755;52.208;6.964;2022-08-19T22:21:44;101056.50;;;21.90;100.00
15308;BME280;7755;52.208;6.964;2022-08-19T22:25:46;101059.88;;;21.87;100.00
15308;BME280;7755;52.208;6.964;2022-08-19T22:29:48;101045.03;;;21.83;100.00